Airfield :
LOGIN :

Register | Disclaimer

   EN    FR    IT 

 










Legend :    VFR   Marginal VFR   IFR   Intensive IFR   Very Intensive IFR
Visi :
Ceiling :
>= 8 km
>= 3000ft
5 to 8 km
1000 to 3000 ft
1500m to 5 km
500 to 1000 ft
800 to 1500m
200 to 500 ft
< 800m
< 200 ft
Symbols :   Thunderstorms  Fog  Heavy snow  Heavy precipitations  Wind > 20 kt
SIGMETs :     Misc.  Thunderstorms  Icing  Turbulence  Mountain Waves  Volcanic Ashes







- Airport Elevation : 844 ft
- IATA code : OSR


LKMT - Ostrava-Mosnov

CURRENT METAR :
  • 121730Z 23014KT 9999 FEW030 05/M01 Q1011 NOSIG

EXPIRED METARs :
  • 121700Z 25014KT 9999 FEW030 05/M01 Q1010 NOSIG
  • 121630Z 25017KT 9999 FEW028 06/01 Q1010 NOSIG
  • 121600Z 22017KT 9999 FEW033 07/02 Q1009 NOSIG
  • 121530Z 21019KT 9999 FEW033 07/02 Q1009 NOSIG
  • 121500Z 22017KT 9999 FEW033 07/02 Q1008 NOSIG

TAF TAF LKMT
Valid from the 12 at 18:00 until the 14 at 00:00 UTC


121700Z 1218/1400 23010KT 9999 SCT030
TEMPO 1218/1220 24012G22KT
BECMG 1218/1219 CAVOK
No reported NOTAMs for that airfield.



MET'MAP, your aeronautical weather chart ! - Copyright ORBIFLY December 2007 - Disclaimer

ORBIFLY MET'MAP TEAM :

Programming & Development : Alexandra Zaïnal
Concept & Development : Baudouin d'Aumeries
Co-Development & Prog : Marc-Olivier Méhu
Technical & hardware support : Manuel Goepfert

Contact : metmap@orbifly.com




SOURCES & CREDITS :

   NOAA